GQPA/ATR METAR and TAF weather

Enter ICAO airport designator
Station Type Date Time Source
GQPA METAR 2021/07/24 09:00 UTC NOAA

GQPA 240900Z 10010KT 8000 NSC 28/14 Q1015


Station Type Date Time Source
GQPA Decoded METAR 2021/07/24 09:00 UTC NOAA

Atar, Mauritania (GQPA) 20-31N 013-04W 224M
Jul 24, 2021 - 05:00 AM EDT / 2021.07.24 0900 UTC
Wind: from the E (100 degrees) at 12 MPH (10 KT):0
Visibility: 4 mile(s):0
Temperature: 82 F (28 C)
Dew Point: 57 F (14 C)
Relative Humidity: 42%
Pressure (altimeter): 29.97 in. Hg (1015 hPa)
ob: GQPA 240900Z 10010KT 8000 NSC 28/14 Q1015
cycle: 9

Station Type Date Time Source
GQPA TAF UTC NOAA

Error!

Example: see airport list